Terminal Aerodrome Forecast
Issued by NWS

Home | Current Version | Previous Version | Text Only | Print | Product List | Glossary On
Versions: 1 2 3 4 5 6 7 8 9 10 11 12 13
052
FTUS45 KFGZ 221723
TAFGCN
TAF
KGCN 221723Z 2218/2318 22017G25KT P6SM FEW050 BKN140
     FM222000 21017G25KT P6SM VCSH BKN040
     FM230000 22012G20KT 4SM -SHRA OVC020
      TEMPO 2300/2304 TSRA OVC015CB
     FM231200 23012KT 2SM -SHSN BR OVC008=

USA.gov is the U.S. government's official web portal to all federal, state and local government web resources and services.